Thu, 22 Apr 2021 10:12:15 UTC

Information for RPM brotli-1.0.7-14.eln103.ppc64le.rpm

ID22840347
Namebrotli
Version1.0.7
Release14.eln103
Epoch
Archppc64le
SummaryLossless compression algorithm
DescriptionBrotli is a generic-purpose lossless compression algorithm that compresses data using a combination of a modern variant of the LZ77 algorithm, Huffman coding and 2nd order context modeling, with a compression ratio comparable to the best currently available general-purpose compression methods. It is similar in speed with deflate but offers more dense compression.
Build Time2020-08-14 03:48:10 GMT
Size355,094
6327b16f69339b55188437cb7ae5cd2e
LicenseMIT
Buildrooteln-build-22187710-1884979
Provides
brotli = 1.0.7-14.eln103
brotli(ppc-64) = 1.0.7-14.eln103
Obsoletes No Obsoletes
Conflicts No Conflicts
Requires
libbrotli(ppc-64) = 1.0.7-14.eln103
libc.so.6()(64bit)
libc.so.6(GLIBC_2.17)(64bit)
libm.so.6()(64bit)
libm.so.6(GLIBC_2.29)(64bit)
rpmlib(CompressedFileNames) <= 3.0.4-1
rpmlib(FileDigests) <= 4.6.0-1
rpmlib(PayloadFilesHavePrefix) <= 4.0-1
rpmlib(PayloadIsZstd) <= 5.4.18-1
rtld(GNU_HASH)
Recommends No Recommends
Suggests No Suggests
Supplements No Supplements
Enhances No Enhances
Files
1 through 4 of 4
Name ascending sort Size
/usr/bin/brotli792,936
/usr/lib/.build-id0
/usr/lib/.build-id/520
/usr/lib/.build-id/52/77028de8bb18684303d755004bbc67585814e426
Component of
Page:
1 through 50 of 377 >>>
Buildroot descending sort Created State
eln-build-23111222-2170526 2020-09-30 17:15:00 expired
eln-build-23110115-2169912 2020-09-30 15:12:07 expired
eln-build-23109465-2169423 2020-09-30 13:41:10 expired
eln-build-23109464-2169423 2020-09-30 13:41:10 expired
eln-build-23109450-2169423 2020-09-30 13:40:50 expired
eln-build-23108976-2169090 2020-09-30 12:41:28 expired
eln-build-23108660-2169062 2020-09-30 12:11:54 expired
eln-build-23107923-2168689 2020-09-30 10:42:06 expired
eln-build-23107917-2168689 2020-09-30 10:41:57 expired
eln-build-23107567-2168684 2020-09-30 10:11:01 expired
eln-build-23106956-2168636 2020-09-30 09:49:29 expired
eln-build-23101798-2168034 2020-09-30 06:41:08 expired
eln-build-23097981-2167801 2020-09-30 04:10:57 expired
eln-build-23096371-2167634 2020-09-30 02:11:14 expired
eln-build-23094898-2167378 2020-09-30 00:42:06 expired
eln-build-23092127-2166788 2020-09-29 20:40:32 expired
eln-build-23090950-2166062 2020-09-29 18:49:20 expired
eln-build-23089794-2165413 2020-09-29 16:23:23 expired
eln-build-23089179-2165371 2020-09-29 15:41:01 expired
eln-build-23088586-2165063 2020-09-29 14:41:57 expired
eln-build-23088133-2164493 2020-09-29 13:38:44 expired
eln-build-23088065-2164493 2020-09-29 13:29:13 expired
eln-build-23087824-2164363 2020-09-29 12:50:35 expired
eln-build-23087696-2164200 2020-09-29 12:33:06 expired
eln-build-23087287-2163999 2020-09-29 11:37:23 expired
eln-build-23086867-2163743 2020-09-29 10:50:24 expired
eln-build-23082760-2161798 2020-09-29 04:11:06 expired
eln-build-23081957-2161781 2020-09-29 02:42:01 expired
eln-build-23081785-2161540 2020-09-29 02:11:12 expired
eln-build-23081537-2161540 2020-09-29 01:41:29 expired
eln-build-23076575-2161267 2020-09-28 20:19:49 expired
eln-build-23076562-2161267 2020-09-28 20:19:26 expired
eln-build-23076556-2161267 2020-09-28 20:18:57 expired
eln-build-23076430-2161267 2020-09-28 20:11:54 expired
eln-build-23076402-2161267 2020-09-28 20:10:34 expired
eln-build-23075408-2161267 2020-09-28 18:38:52 expired
eln-build-23074256-2161267 2020-09-28 15:56:51 expired
eln-build-23073162-2160946 2020-09-28 13:25:14 expired
eln-build-23072396-2160788 2020-09-28 11:54:08 expired
eln-build-23070781-2160053 2020-09-28 08:32:29 expired
eln-build-23061938-2157806 2020-09-27 19:22:37 expired
eln-build-23061805-2157764 2020-09-27 19:08:56 expired
eln-build-23043745-2154417 2020-09-26 23:40:32 expired
eln-build-23039340-2152984 2020-09-26 15:40:50 expired
eln-build-23022843-2152112 2020-09-26 05:41:00 expired
eln-build-23014180-2149102 2020-09-25 17:45:24 expired
eln-build-23011056-2148256 2020-09-25 14:10:56 expired
eln-build-23007529-2146934 2020-09-25 09:32:50 expired
eln-build-23002524-2145909 2020-09-25 05:11:56 expired
eln-build-22999968-2145798 2020-09-25 03:12:49 expired